createdAt,value
2019-05-19T00:00:32.807Z,1021.83
2019-05-19T00:01:32.800Z,1021.85
2019-05-19T00:02:32.789Z,1021.85
2019-05-19T00:03:32.782Z,1021.9
2019-05-19T00:04:32.776Z,1021.94
2019-05-19T00:05:32.766Z,1021.91
2019-05-19T00:06:32.759Z,1021.92
2019-05-19T00:07:32.750Z,1021.93
2019-05-19T00:08:32.743Z,1021.94
2019-05-19T00:09:32.735Z,1021.98
2019-05-19T00:10:32.728Z,1021.95
2019-05-19T00:11:32.721Z,1021.95
2019-05-19T00:12:32.715Z,1021.96
2019-05-19T00:13:32.705Z,1021.94
2019-05-19T00:14:32.697Z,1021.96
2019-05-19T00:15:32.689Z,1021.97
2019-05-19T00:16:32.681Z,1022
2019-05-19T00:17:32.673Z,1022.03
2019-05-19T00:18:32.666Z,1022.05
2019-05-19T00:19:32.656Z,1022
2019-05-19T00:20:32.648Z,1022.03
2019-05-19T00:21:32.641Z,1022.01
2019-05-19T00:22:32.634Z,1022
2019-05-19T00:23:32.625Z,1021.99
2019-05-19T00:24:32.616Z,1022.01
2019-05-19T00:25:32.815Z,1021.98
2019-05-19T00:26:32.605Z,1021.95
2019-05-19T00:27:32.597Z,1021.96
2019-05-19T00:28:32.586Z,1021.95
2019-05-19T00:29:32.579Z,1021.93
2019-05-19T00:30:32.569Z,1021.9
2019-05-19T00:31:32.562Z,1021.91
2019-05-19T00:32:32.554Z,1021.94
2019-05-19T00:33:32.547Z,1021.93
2019-05-19T00:34:32.538Z,1021.91
2019-05-19T00:35:32.537Z,1021.89
2019-05-19T00:36:38.784Z,1021.9
2019-05-19T00:37:32.513Z,1021.89
2019-05-19T00:38:32.505Z,1021.92
2019-05-19T00:39:32.502Z,1021.91
2019-05-19T00:40:32.490Z,1021.97
2019-05-19T00:41:32.481Z,1021.96
2019-05-19T00:42:32.475Z,1021.94
2019-05-19T00:43:32.466Z,1021.98
2019-05-19T00:44:32.458Z,1021.99
2019-05-19T00:45:32.452Z,1021.95
2019-05-19T00:46:32.441Z,1021.95
2019-05-19T00:47:32.434Z,1021.94
2019-05-19T00:48:32.424Z,1021.93
2019-05-19T00:49:40.831Z,1021.94
2019-05-19T00:50:32.408Z,1021.94
2019-05-19T00:51:38.667Z,1021.96
2019-05-19T00:52:32.392Z,1021.94
2019-05-19T00:53:32.385Z,1021.94
2019-05-19T00:54:32.377Z,1021.92
2019-05-19T00:55:32.380Z,1021.91
2019-05-19T00:56:32.364Z,1021.95
2019-05-19T00:57:32.361Z,1021.91
2019-05-19T00:58:32.344Z,1021.91
2019-05-19T00:59:32.337Z,1021.92
2019-05-19T01:00:32.732Z,1021.9
2019-05-19T01:01:32.318Z,1021.92
2019-05-19T01:02:32.312Z,1021.93
2019-05-19T01:03:32.301Z,1021.98
2019-05-19T01:04:32.294Z,1021.93
2019-05-19T01:05:32.287Z,1021.94
2019-05-19T01:06:32.279Z,1021.94
2019-05-19T01:07:32.274Z,1021.93
2019-05-19T01:08:32.262Z,1021.96
2019-05-19T01:09:32.253Z,1021.98
2019-05-19T01:10:32.245Z,1022.02
2019-05-19T01:11:32.237Z,1022
2019-05-19T01:12:32.230Z,1021.99
2019-05-19T01:13:32.220Z,1022.03
2019-05-19T01:14:32.211Z,1022.03
2019-05-19T01:15:32.206Z,1022.01
2019-05-19T01:16:32.196Z,1022.01
2019-05-19T01:17:32.189Z,1021.97
2019-05-19T01:18:32.181Z,1021.97
2019-05-19T01:19:32.171Z,1021.93
2019-05-19T01:20:32.161Z,1021.95
2019-05-19T01:21:32.155Z,1021.96
2019-05-19T01:22:32.146Z,1021.96
2019-05-19T01:23:32.137Z,1021.94
2019-05-19T01:24:32.130Z,1021.95
2019-05-19T01:25:32.121Z,1021.95
2019-05-19T01:26:32.113Z,1021.92
2019-05-19T01:27:32.103Z,1021.93
2019-05-19T01:28:32.098Z,1021.91
2019-05-19T01:29:32.088Z,1021.9
2019-05-19T01:30:32.082Z,1021.89
2019-05-19T01:31:32.074Z,1021.88
2019-05-19T01:32:32.063Z,1021.89
2019-05-19T01:33:32.059Z,1021.84
2019-05-19T01:34:32.046Z,1021.86
2019-05-19T01:36:32.030Z,1021.83
2019-05-19T01:37:32.044Z,1021.85
2019-05-19T01:38:32.013Z,1021.79
2019-05-19T01:39:32.006Z,1021.76
2019-05-19T01:40:31.996Z,1021.74
2019-05-19T01:41:32.006Z,1021.75
2019-05-19T01:42:31.979Z,1021.73
2019-05-19T01:44:31.970Z,1021.75
2019-05-19T01:45:31.955Z,1021.76
2019-05-19T01:46:31.947Z,1021.75
2019-05-19T01:47:31.938Z,1021.74
2019-05-19T01:48:31.929Z,1021.76
2019-05-19T01:49:31.920Z,1021.76
2019-05-19T01:50:31.920Z,1021.77
2019-05-19T01:51:31.904Z,1021.76
2019-05-19T01:52:31.898Z,1021.72
2019-05-19T01:53:31.888Z,1021.75
2019-05-19T01:54:31.877Z,1021.74
2019-05-19T01:55:31.870Z,1021.72
2019-05-19T01:56:31.863Z,1021.74
2019-05-19T01:57:31.855Z,1021.71
2019-05-19T01:58:31.846Z,1021.7
2019-05-19T01:59:31.838Z,1021.72
2019-05-19T02:00:31.829Z,1021.69
2019-05-19T02:01:31.821Z,1021.74
2019-05-19T02:02:44.544Z,1021.74
2019-05-19T02:03:31.804Z,1021.73
2019-05-19T02:04:31.798Z,1021.76
2019-05-19T02:05:31.795Z,1021.74
2019-05-19T02:06:31.779Z,1021.71
2019-05-19T02:07:31.811Z,1021.74
2019-05-19T02:08:31.761Z,1021.77
2019-05-19T02:09:31.753Z,1021.74
2019-05-19T02:10:31.745Z,1021.71
2019-05-19T02:11:31.759Z,1021.73
2019-05-19T02:12:31.729Z,1021.7
2019-05-19T02:13:31.719Z,1021.73
2019-05-19T02:14:31.712Z,1021.7
2019-05-19T02:15:31.704Z,1021.69
2019-05-19T02:16:31.694Z,1021.74
2019-05-19T02:17:31.686Z,1021.74
2019-05-19T02:18:31.678Z,1021.78
2019-05-19T02:19:31.669Z,1021.78
2019-05-19T02:20:33.510Z,1021.78
2019-05-19T02:21:31.650Z,1021.79
2019-05-19T02:22:31.645Z,1021.77
2019-05-19T02:23:31.635Z,1021.79
2019-05-19T02:24:31.626Z,1021.81
2019-05-19T02:25:31.618Z,1021.77
2019-05-19T02:26:31.610Z,1021.78
2019-05-19T02:27:31.600Z,1021.79
2019-05-19T02:28:31.592Z,1021.8
2019-05-19T02:29:31.584Z,1021.82
2019-05-19T02:30:31.575Z,1021.84
2019-05-19T02:31:31.566Z,1021.8
2019-05-19T02:32:31.562Z,1021.81
2019-05-19T02:33:35.410Z,1021.82
2019-05-19T02:34:31.541Z,1021.82
2019-05-19T02:35:31.532Z,1021.8
2019-05-19T02:36:31.526Z,1021.79
2019-05-19T02:37:31.517Z,1021.84
2019-05-19T02:38:31.506Z,1021.85
2019-05-19T02:39:31.499Z,1021.84
2019-05-19T02:40:31.491Z,1021.86
2019-05-19T02:41:31.482Z,1021.85
2019-05-19T02:42:31.474Z,1021.83
2019-05-19T02:43:31.464Z,1021.84
2019-05-19T02:44:31.542Z,1021.83
2019-05-19T02:45:31.454Z,1021.84
2019-05-19T02:46:31.439Z,1021.79
2019-05-19T02:47:31.435Z,1021.82
2019-05-19T02:48:31.421Z,1021.78
2019-05-19T02:49:31.412Z,1021.8
2019-05-19T02:50:31.403Z,1021.78
2019-05-19T02:51:31.396Z,1021.8
2019-05-19T02:52:31.387Z,1021.84
2019-05-19T02:53:31.377Z,1021.79
2019-05-19T02:54:31.370Z,1021.81
2019-05-19T02:55:31.362Z,1021.81
2019-05-19T02:56:31.352Z,1021.79
2019-05-19T02:57:31.342Z,1021.82
2019-05-19T02:58:31.334Z,1021.75
2019-05-19T02:59:31.337Z,1021.77
2019-05-19T03:00:31.317Z,1021.73
2019-05-19T03:01:31.310Z,1021.74
2019-05-19T03:02:31.301Z,1021.73
2019-05-19T03:03:31.292Z,1021.74
2019-05-19T03:04:31.320Z,1021.72
2019-05-19T03:05:31.275Z,1021.72
2019-05-19T03:06:31.268Z,1021.7
2019-05-19T03:07:31.257Z,1021.64
2019-05-19T03:08:31.248Z,1021.66
2019-05-19T03:09:31.242Z,1021.68
2019-05-19T03:10:31.230Z,1021.66
2019-05-19T03:11:31.221Z,1021.62
2019-05-19T03:12:31.214Z,1021.65
2019-05-19T03:13:31.209Z,1021.68
2019-05-19T03:14:31.202Z,1021.66
2019-05-19T03:15:31.191Z,1021.7
2019-05-19T03:16:31.182Z,1021.65
2019-05-19T03:17:31.175Z,1021.64
2019-05-19T03:18:31.161Z,1021.66
2019-05-19T03:19:31.156Z,1021.64
2019-05-19T03:20:31.147Z,1021.62
2019-05-19T03:21:31.140Z,1021.59
2019-05-19T03:22:31.131Z,1021.55
2019-05-19T03:23:31.120Z,1021.55
2019-05-19T03:24:31.113Z,1021.53
2019-05-19T03:25:31.104Z,1021.52
2019-05-19T03:26:31.097Z,1021.53
2019-05-19T03:27:31.086Z,1021.5
2019-05-19T03:28:31.078Z,1021.51
2019-05-19T03:29:31.069Z,1021.46
2019-05-19T03:30:31.064Z,1021.43
2019-05-19T03:31:31.064Z,1021.42
2019-05-19T03:32:31.046Z,1021.37
2019-05-19T03:33:31.039Z,1021.38
2019-05-19T03:34:31.029Z,1021.38
2019-05-19T03:35:31.034Z,1021.37
2019-05-19T03:36:31.028Z,1021.29
2019-05-19T03:37:31.004Z,1021.22
2019-05-19T03:38:30.995Z,1021.23
2019-05-19T03:39:30.987Z,1021.16
2019-05-19T03:40:30.988Z,1021.16
2019-05-19T03:41:30.970Z,1021.11
2019-05-19T03:42:30.963Z,1021.01
2019-05-19T03:43:30.954Z,1020.92
2019-05-19T03:44:30.952Z,1020.76
2019-05-19T03:45:30.938Z,1020.55
2019-05-19T03:46:30.934Z,1020.41
2019-05-19T03:47:30.924Z,1020.24
2019-05-19T03:48:30.915Z,1020.18
2019-05-19T03:49:30.911Z,1020.08
2019-05-19T03:50:30.901Z,1020.01
2019-05-19T03:51:31.945Z,1019.88
2019-05-19T03:52:30.894Z,1019.76
2019-05-19T03:53:30.887Z,1019.63
2019-05-19T03:54:30.872Z,1019.55
2019-05-19T03:55:30.865Z,1019.47
2019-05-19T03:56:30.858Z,1019.36
2019-05-19T03:57:30.853Z,1019.34
2019-05-19T03:58:30.861Z,1019.26
2019-05-19T03:59:30.838Z,1019.16
2019-05-19T04:00:30.832Z,1019.13
2019-05-19T04:01:30.826Z,1019.04
2019-05-19T04:02:30.819Z,1019
2019-05-19T04:03:30.814Z,1018.92
2019-05-19T04:04:30.808Z,1018.8
2019-05-19T04:05:30.803Z,1018.66
2019-05-19T04:06:30.817Z,1018.53
2019-05-19T04:07:30.792Z,1018.33
2019-05-19T04:08:30.787Z,1018.18
2019-05-19T04:09:30.783Z,1018.1
2019-05-19T04:10:30.776Z,1017.99
2019-05-19T04:11:30.773Z,1017.93
2019-05-19T04:12:30.767Z,1017.84
2019-05-19T04:13:30.765Z,1017.77
2019-05-19T04:14:30.758Z,1017.71
2019-05-19T04:15:30.755Z,1017.61
2019-05-19T04:16:30.757Z,1017.47
2019-05-19T04:17:30.747Z,1017.33
2019-05-19T04:18:30.772Z,1017.2
2019-05-19T04:19:30.742Z,1017.07
2019-05-19T04:20:30.736Z,1016.91
2019-05-19T04:21:47.442Z,1016.82
2019-05-19T04:22:30.753Z,1016.72
2019-05-19T04:23:30.732Z,1016.73
2019-05-19T04:24:30.725Z,1016.78
2019-05-19T04:25:30.727Z,1016.89
2019-05-19T04:26:30.721Z,1017.01
2019-05-19T04:27:30.720Z,1017.13
2019-05-19T04:29:30.715Z,1017.16
2019-05-19T04:30:30.719Z,1017.1
2019-05-19T04:31:30.729Z,1016.91
2019-05-19T04:32:30.722Z,1016.77
2019-05-19T04:33:30.706Z,1016.77
2019-05-19T04:34:30.708Z,1016.8
2019-05-19T04:35:30.702Z,1016.84
2019-05-19T04:36:30.701Z,1016.84
2019-05-19T04:37:30.701Z,1016.95
2019-05-19T04:38:30.699Z,1017.04
2019-05-19T04:39:30.708Z,1017.11
2019-05-19T04:40:30.697Z,1017.26
2019-05-19T04:41:30.697Z,1017.39
2019-05-19T04:42:30.695Z,1017.47
2019-05-19T04:43:30.697Z,1017.47
2019-05-19T04:44:30.693Z,1017.52
2019-05-19T04:45:30.691Z,1017.52
2019-05-19T04:46:30.698Z,1017.44
2019-05-19T04:47:30.688Z,1017.22
2019-05-19T04:48:30.687Z,1017.06
2019-05-19T04:49:30.686Z,1016.86
2019-05-19T04:50:30.684Z,1016.63
2019-05-19T04:51:30.684Z,1016.41
2019-05-19T04:52:30.683Z,1016.5
2019-05-19T04:53:30.683Z,1016.42
2019-05-19T04:54:30.680Z,1016.37
2019-05-19T04:55:30.703Z,1016.26
2019-05-19T04:56:30.677Z,1016.18
2019-05-19T04:57:30.676Z,1016.11
2019-05-19T04:58:30.677Z,1016.18
2019-05-19T04:59:30.676Z,1016.26
2019-05-19T05:00:30.684Z,1016.39
2019-05-19T05:01:30.675Z,1016.48
2019-05-19T05:02:30.683Z,1016.51
2019-05-19T05:03:30.677Z,1016.65
2019-05-19T05:04:30.678Z,1016.73
2019-05-19T05:05:30.673Z,1016.81
2019-05-19T05:06:30.674Z,1016.89
2019-05-19T05:07:30.677Z,1016.88
2019-05-19T05:08:31.000Z,1016.67
2019-05-19T05:09:30.677Z,1016.63
2019-05-19T05:10:30.671Z,1016.64
2019-05-19T05:11:30.671Z,1016.71
2019-05-19T05:12:30.670Z,1016.82
2019-05-19T05:13:30.670Z,1016.88
2019-05-19T05:14:30.671Z,1017.05
2019-05-19T05:15:30.668Z,1017
2019-05-19T05:16:30.668Z,1016.98
2019-05-19T05:17:30.668Z,1016.85
2019-05-19T05:18:30.667Z,1016.76
2019-05-19T05:19:30.669Z,1016.53
2019-05-19T05:20:30.666Z,1016.19
2019-05-19T05:21:30.667Z,1015.85
2019-05-19T05:22:30.667Z,1015.83
2019-05-19T05:23:30.665Z,1015.82
2019-05-19T05:25:30.667Z,1015.48
2019-05-19T05:26:30.666Z,1015.5
2019-05-19T05:27:30.666Z,1015.57
2019-05-19T05:28:30.670Z,1015.59
2019-05-19T05:29:30.669Z,1015.44
2019-05-19T05:30:30.671Z,1015.3
2019-05-19T05:31:30.671Z,1015.16
2019-05-19T05:32:30.672Z,1015
2019-05-19T05:33:30.674Z,1014.91
2019-05-19T05:34:30.674Z,1014.81
2019-05-19T05:35:30.678Z,1014.67
2019-05-19T05:36:30.681Z,1014.62
2019-05-19T05:37:30.683Z,1014.4
2019-05-19T05:38:30.686Z,1014.23
2019-05-19T05:39:30.688Z,1014.1
2019-05-19T05:40:30.694Z,1013.92
2019-05-19T05:41:30.698Z,1013.92
2019-05-19T05:42:31.817Z,1013.81
2019-05-19T05:43:30.706Z,1013.81
2019-05-19T05:44:30.711Z,1013.76
2019-05-19T05:45:30.725Z,1013.8
2019-05-19T05:46:30.721Z,1013.75
2019-05-19T05:47:30.729Z,1013.69
2019-05-19T05:48:30.734Z,1013.54
2019-05-19T05:49:30.745Z,1013.42
2019-05-19T05:50:30.750Z,1013.39
2019-05-19T05:51:30.755Z,1013.27
2019-05-19T05:52:38.322Z,1013.02
2019-05-19T05:53:30.769Z,1013.19
2019-05-19T05:54:30.777Z,1013.29
2019-05-19T05:55:30.786Z,1013.36
2019-05-19T05:56:30.791Z,1013.38
2019-05-19T05:57:30.803Z,1013.59
2019-05-19T05:58:30.809Z,1014.03
2019-05-19T05:59:30.815Z,1014.29
2019-05-19T06:00:30.824Z,1014.27
2019-05-19T06:01:30.836Z,1013.98
2019-05-19T06:02:30.843Z,1013.92
2019-05-19T06:03:30.847Z,1013.68
2019-05-19T06:04:30.856Z,1013.53
2019-05-19T06:05:30.867Z,1013.41
2019-05-19T06:06:30.873Z,1013.12
2019-05-19T06:08:30.893Z,1012.81
2019-05-19T06:09:30.898Z,1012.74
2019-05-19T06:10:30.905Z,1012.56
2019-05-19T06:11:30.914Z,1012.36
2019-05-19T06:12:30.925Z,1012.2
2019-05-19T06:13:30.934Z,1012.09
2019-05-19T06:14:30.942Z,1012.05
2019-05-19T06:15:30.952Z,1012.03
2019-05-19T06:16:30.962Z,1011.98
2019-05-19T06:17:30.972Z,1011.86
2019-05-19T06:18:30.982Z,1011.7
2019-05-19T06:19:30.995Z,1011.59
2019-05-19T06:20:31.005Z,1011.41
2019-05-19T06:21:31.013Z,1011.31
2019-05-19T06:22:31.027Z,1011.27
2019-05-19T06:23:31.036Z,1011.23
2019-05-19T06:24:31.057Z,1011.2
2019-05-19T06:25:31.115Z,1011.26
2019-05-19T06:26:31.071Z,1011.26
2019-05-19T06:27:31.082Z,1011.28
2019-05-19T06:28:31.095Z,1011.14
2019-05-19T06:29:31.110Z,1011.12
2019-05-19T06:30:31.132Z,1011.02
2019-05-19T06:31:31.133Z,1010.95
2019-05-19T06:32:31.146Z,1010.91
2019-05-19T06:33:31.159Z,1010.81
2019-05-19T06:34:31.172Z,1010.74
2019-05-19T06:35:31.185Z,1010.73
2019-05-19T06:36:31.197Z,1010.75
2019-05-19T06:37:31.211Z,1010.7
2019-05-19T06:38:31.225Z,1010.69
2019-05-19T06:39:31.236Z,1010.71
2019-05-19T06:40:31.250Z,1010.66
2019-05-19T06:41:31.265Z,1010.69
2019-05-19T06:42:31.280Z,1010.62
2019-05-19T06:43:31.300Z,1010.57
2019-05-19T06:44:31.306Z,1010.53
2019-05-19T06:45:31.336Z,1010.42
2019-05-19T06:46:31.333Z,1010.44
2019-05-19T06:47:31.346Z,1010.43
2019-05-19T06:48:31.362Z,1010.44
2019-05-19T06:49:31.377Z,1010.38
2019-05-19T06:50:31.390Z,1010.32
2019-05-19T06:51:31.404Z,1010.24
2019-05-19T06:52:31.419Z,1010.18
2019-05-19T06:53:31.433Z,1010.08
2019-05-19T06:54:31.448Z,1010.05
2019-05-19T06:55:31.611Z,1010.06
2019-05-19T06:56:31.478Z,1010.02
2019-05-19T06:57:31.495Z,1010.03
2019-05-19T06:58:31.505Z,1010.01
2019-05-19T06:59:31.521Z,1010.02
2019-05-19T07:00:31.536Z,1010.03
2019-05-19T07:01:31.553Z,1010.11
2019-05-19T07:02:31.566Z,1010.13
2019-05-19T07:03:31.582Z,1010.07
2019-05-19T07:04:31.598Z,1010.01
2019-05-19T07:05:31.617Z,1009.9
2019-05-19T07:06:34.165Z,1009.86
2019-05-19T07:07:31.641Z,1009.83
2019-05-19T07:08:31.658Z,1009.89
2019-05-19T07:09:31.681Z,1009.96
2019-05-19T07:10:31.688Z,1010.07
2019-05-19T07:11:31.708Z,1010.09
2019-05-19T07:12:31.717Z,1010.23
2019-05-19T07:13:31.735Z,1010.26
2019-05-19T07:14:31.750Z,1010.19
2019-05-19T07:15:31.765Z,1010.12
2019-05-19T07:16:31.780Z,1010.12
2019-05-19T07:17:31.806Z,1010.21
2019-05-19T07:18:31.811Z,1010.28
2019-05-19T07:19:31.826Z,1010.33
2019-05-19T07:20:31.841Z,1010.34
2019-05-19T07:21:31.859Z,1010.33
2019-05-19T07:22:31.872Z,1010.2
2019-05-19T07:23:31.887Z,1010.15
2019-05-19T07:24:31.902Z,1010.07
2019-05-19T07:25:31.921Z,1009.97
2019-05-19T07:26:31.936Z,1009.95
2019-05-19T07:27:31.949Z,1009.95
2019-05-19T07:28:31.965Z,1009.6
2019-05-19T07:29:31.981Z,1010.18
2019-05-19T07:30:31.997Z,1010.73
2019-05-19T07:31:32.011Z,1010.68
2019-05-19T07:32:32.039Z,1010.64
2019-05-19T07:33:32.042Z,1010.78
2019-05-19T07:34:32.201Z,1009.97
2019-05-19T07:35:32.074Z,1010.78
2019-05-19T07:36:32.087Z,1010.75
2019-05-19T07:37:32.104Z,1011.06
2019-05-19T07:38:32.127Z,1011.15
2019-05-19T07:39:32.131Z,1011
2019-05-19T07:40:32.146Z,1011.34
2019-05-19T07:41:32.160Z,1011.99
2019-05-19T07:42:32.174Z,1011.74
2019-05-19T07:43:32.193Z,1012.12
2019-05-19T07:44:32.202Z,1011.57
2019-05-19T07:45:32.215Z,1011.23
2019-05-19T07:46:32.231Z,1010.91
2019-05-19T07:47:32.243Z,1010.67
2019-05-19T07:48:32.257Z,1011.04
2019-05-19T07:49:32.287Z,1011.6
2019-05-19T07:50:32.287Z,1011.91
2019-05-19T07:51:32.298Z,1012.14
2019-05-19T07:52:32.312Z,1012.48
2019-05-19T07:53:42.463Z,1012.74
2019-05-19T07:54:32.337Z,1012.99
2019-05-19T07:55:32.350Z,1013.15
2019-05-19T07:56:32.361Z,1013.34
2019-05-19T07:57:32.374Z,1013.57
2019-05-19T07:58:32.386Z,1012.81
2019-05-19T07:59:32.398Z,1013.05
2019-05-19T08:00:32.408Z,1013.21
2019-05-19T08:01:32.421Z,1013.43
2019-05-19T08:02:32.432Z,1013.54
2019-05-19T08:03:32.443Z,1013.72
2019-05-19T08:05:32.465Z,1013.91
2019-05-19T08:06:32.476Z,1013.9
2019-05-19T08:07:32.487Z,1014.14
2019-05-19T08:08:32.649Z,1014.43
2019-05-19T08:09:32.506Z,1014.9
2019-05-19T08:10:32.517Z,1014.15
2019-05-19T08:11:32.525Z,1014.08
2019-05-19T08:12:33.748Z,1013.66
2019-05-19T08:13:32.544Z,1012.7
2019-05-19T08:14:33.767Z,1012.21
2019-05-19T08:15:32.563Z,1012.14
2019-05-19T08:16:32.571Z,1012.17
2019-05-19T08:18:32.591Z,1012.02
2019-05-19T08:19:32.602Z,1011.88
2019-05-19T08:20:32.611Z,1011.83
2019-05-19T08:21:32.620Z,1011.92
2019-05-19T08:22:32.630Z,1011.95
2019-05-19T08:23:32.642Z,1011.97
2019-05-19T08:24:32.653Z,1012.03
2019-05-19T08:25:32.659Z,1012.06
2019-05-19T08:26:32.669Z,1012.05
2019-05-19T08:27:32.691Z,1012
2019-05-19T08:28:32.690Z,1011.87
2019-05-19T08:29:32.700Z,1011.86
2019-05-19T08:31:32.721Z,1011.64
2019-05-19T08:32:32.734Z,1011.64
2019-05-19T08:33:32.749Z,1011.75
2019-05-19T08:34:32.751Z,1011.64
2019-05-19T08:35:32.817Z,1011.58
2019-05-19T08:36:32.770Z,1011.54
2019-05-19T08:37:32.782Z,1011.59
2019-05-19T08:38:32.796Z,1011.67
2019-05-19T08:39:32.803Z,1011.67
2019-05-19T08:40:32.822Z,1011.62
2019-05-19T08:41:32.824Z,1011.54
2019-05-19T08:42:32.834Z,1011.55
2019-05-19T08:43:32.856Z,1011.95
2019-05-19T08:44:32.858Z,1012.49
2019-05-19T08:45:32.864Z,1013.15
2019-05-19T08:46:32.879Z,1013.63
2019-05-19T08:47:32.884Z,1014.01
2019-05-19T08:48:32.894Z,1014.54
2019-05-19T08:49:32.911Z,1014.72
2019-05-19T08:50:32.957Z,1015.1
2019-05-19T08:51:32.931Z,1015.62
2019-05-19T08:52:32.930Z,1015.85
2019-05-19T08:53:32.939Z,1016.16
2019-05-19T08:55:32.954Z,1016.53
2019-05-19T08:57:32.969Z,1016.75
2019-05-19T08:58:32.973Z,1016.87
2019-05-19T08:59:32.979Z,1016.93
2019-05-19T09:00:36.226Z,1017.04
2019-05-19T09:01:32.991Z,1017.13
2019-05-19T09:02:32.995Z,1017.13
2019-05-19T09:03:33.003Z,1017.25
2019-05-19T09:04:33.005Z,1017.3
2019-05-19T09:05:33.014Z,1017.33
2019-05-19T09:06:33.017Z,1017.39
2019-05-19T09:07:33.019Z,1017.34
2019-05-19T09:08:33.022Z,1017.37
2019-05-19T09:09:33.023Z,1017.52
2019-05-19T09:10:33.026Z,1017.47
2019-05-19T09:11:33.102Z,1017.5
2019-05-19T09:12:33.070Z,1017.52
2019-05-19T09:13:33.063Z,1017.47
2019-05-19T09:14:33.035Z,1017.48
2019-05-19T09:15:33.037Z,1017.52
2019-05-19T09:16:33.043Z,1017.48
2019-05-19T09:17:33.040Z,1017.41
2019-05-19T09:18:33.041Z,1017.54
2019-05-19T09:19:33.044Z,1017.4
2019-05-19T09:20:33.044Z,1017.44
2019-05-19T09:21:33.047Z,1017.32
2019-05-19T09:22:33.049Z,1017.31
2019-05-19T09:23:33.048Z,1017.26
2019-05-19T09:24:33.049Z,1017.27
2019-05-19T09:25:33.050Z,1017.24
2019-05-19T09:26:33.052Z,1017.2
2019-05-19T09:27:33.053Z,1017.16
2019-05-19T09:28:33.053Z,1017.16
2019-05-19T09:29:33.053Z,1017.08
2019-05-19T09:30:33.054Z,1017.02
2019-05-19T09:31:33.055Z,1017.07
2019-05-19T09:32:33.065Z,1017.02
2019-05-19T09:33:33.056Z,1017.04
2019-05-19T09:34:33.058Z,1016.96
2019-05-19T09:35:33.062Z,1016.97
2019-05-19T09:36:33.058Z,1016.96
2019-05-19T09:37:33.059Z,1016.94
2019-05-19T09:38:33.125Z,1016.93
2019-05-19T09:39:33.062Z,1016.9
2019-05-19T09:40:33.067Z,1016.91
2019-05-19T09:41:33.064Z,1016.85
2019-05-19T09:42:33.077Z,1016.84
2019-05-19T09:43:33.065Z,1016.84
2019-05-19T09:44:33.066Z,1016.76
2019-05-19T09:45:33.068Z,1016.73
2019-05-19T09:46:33.066Z,1016.69
2019-05-19T09:47:33.079Z,1016.88
2019-05-19T09:48:33.124Z,1016.8
2019-05-19T09:49:33.072Z,1016.82
2019-05-19T09:50:33.071Z,1016.78
2019-05-19T09:51:33.071Z,1016.8
2019-05-19T09:52:33.072Z,1016.79
2019-05-19T09:53:33.078Z,1016.75
2019-05-19T09:54:43.993Z,1016.76
2019-05-19T09:55:33.073Z,1016.72
2019-05-19T09:56:33.079Z,1016.69
2019-05-19T09:57:33.074Z,1016.7
2019-05-19T09:58:33.079Z,1016.67
2019-05-19T09:59:33.076Z,1016.64
2019-05-19T10:00:33.077Z,1016.66
2019-05-19T10:01:33.078Z,1016.66
2019-05-19T10:02:33.084Z,1016.69
2019-05-19T10:03:33.090Z,1016.66
2019-05-19T10:04:33.081Z,1016.61
2019-05-19T10:05:33.080Z,1016.64
2019-05-19T10:06:33.082Z,1016.67
2019-05-19T10:07:33.084Z,1016.68
2019-05-19T10:08:33.083Z,1016.58
2019-05-19T10:09:33.085Z,1016.6
2019-05-19T10:10:33.085Z,1016.61
2019-05-19T10:11:33.092Z,1016.55
2019-05-19T10:12:33.085Z,1016.53
2019-05-19T10:13:33.087Z,1016.54
2019-05-19T10:14:33.087Z,1016.4
2019-05-19T10:15:33.088Z,1016.4
2019-05-19T10:16:33.089Z,1016.5
2019-05-19T10:17:33.092Z,1016.42
2019-05-19T10:18:33.091Z,1016.44
2019-05-19T10:19:33.092Z,1016.46
2019-05-19T10:20:33.095Z,1016.41
2019-05-19T10:21:33.093Z,1016.38
2019-05-19T10:22:33.466Z,1016.26
2019-05-19T10:23:33.094Z,1016.17
2019-05-19T10:24:33.096Z,1016
2019-05-19T10:25:33.096Z,1015.93
2019-05-19T10:26:33.098Z,1015.83
2019-05-19T10:27:33.100Z,1015.81
2019-05-19T10:28:33.102Z,1015.89
2019-05-19T10:29:33.102Z,1015.75
2019-05-19T10:30:33.103Z,1015.71
2019-05-19T10:31:33.103Z,1015.6
2019-05-19T10:32:33.112Z,1015.5
2019-05-19T10:33:33.107Z,1015.3
2019-05-19T10:34:33.112Z,1015.2
2019-05-19T10:35:33.111Z,1015.22
2019-05-19T10:36:33.117Z,1015.27
2019-05-19T10:37:33.114Z,1015.06
2019-05-19T10:38:33.117Z,1015.19
2019-05-19T10:39:33.119Z,1015.12
2019-05-19T10:40:33.125Z,1015.04
2019-05-19T10:41:33.123Z,1015.11
2019-05-19T10:42:33.133Z,1014.95
2019-05-19T10:43:33.128Z,1014.91
2019-05-19T10:44:33.140Z,1014.93
2019-05-19T10:45:33.132Z,1014.88
2019-05-19T10:46:33.136Z,1014.9
2019-05-19T10:47:33.170Z,1014.9
2019-05-19T10:48:33.145Z,1014.89
2019-05-19T10:49:33.144Z,1014.95
2019-05-19T10:50:33.148Z,1014.98
2019-05-19T10:51:33.163Z,1014.84
2019-05-19T10:52:33.153Z,1014.8
2019-05-19T10:53:33.159Z,1014.96
2019-05-19T10:54:33.161Z,1015.02
2019-05-19T10:55:36.346Z,1015.1
2019-05-19T10:56:33.166Z,1015.02
2019-05-19T10:57:33.179Z,1015.02
2019-05-19T10:58:33.172Z,1015.07
2019-05-19T10:59:33.176Z,1015.12
2019-05-19T11:00:33.179Z,1015.03
2019-05-19T11:01:33.185Z,1014.96
2019-05-19T11:02:33.185Z,1014.91
2019-05-19T11:03:33.188Z,1014.86
2019-05-19T11:04:33.194Z,1014.97
2019-05-19T11:05:33.195Z,1014.95
2019-05-19T11:06:33.197Z,1014.93
2019-05-19T11:07:33.201Z,1014.94
2019-05-19T11:08:33.204Z,1015.06
2019-05-19T11:09:33.207Z,1015.16
2019-05-19T11:10:33.209Z,1015.3
2019-05-19T11:11:33.214Z,1015.31
2019-05-19T11:12:33.224Z,1015.45
2019-05-19T11:13:33.220Z,1015.55
2019-05-19T11:14:33.225Z,1015.56
2019-05-19T11:15:33.228Z,1015.52
2019-05-19T11:16:33.268Z,1015.53
2019-05-19T11:17:33.232Z,1015.33
2019-05-19T11:18:33.239Z,1015.27
2019-05-19T11:19:33.239Z,1015.23
2019-05-19T11:20:33.242Z,1015.12
2019-05-19T11:21:33.241Z,1015.1
2019-05-19T11:22:33.244Z,1015.14
2019-05-19T11:23:33.248Z,1015.09
2019-05-19T11:24:33.249Z,1014.96
2019-05-19T11:25:34.399Z,1014.83
2019-05-19T11:26:33.257Z,1014.77
2019-05-19T11:27:33.257Z,1014.84
2019-05-19T11:28:33.266Z,1014.83
2019-05-19T11:29:33.263Z,1014.89
2019-05-19T11:30:33.266Z,1014.85
2019-05-19T11:31:33.270Z,1014.86
2019-05-19T11:32:33.271Z,1014.97
2019-05-19T11:33:33.276Z,1014.97
2019-05-19T11:34:33.279Z,1015.04
2019-05-19T11:35:33.282Z,1015.03
2019-05-19T11:36:33.283Z,1015.08
2019-05-19T11:37:33.284Z,1015.08
2019-05-19T11:38:33.287Z,1015.06
2019-05-19T11:39:33.288Z,1015.06
2019-05-19T11:40:33.291Z,1015.02
2019-05-19T11:41:33.296Z,1015.05
2019-05-19T11:42:33.297Z,1015.15
2019-05-19T11:43:33.299Z,1015.23
2019-05-19T11:44:33.325Z,1015.24
2019-05-19T11:45:33.303Z,1015.21
2019-05-19T11:46:33.366Z,1015.3
2019-05-19T11:47:33.309Z,1015.49
2019-05-19T11:48:33.311Z,1015.39
2019-05-19T11:49:33.313Z,1015.22
2019-05-19T11:50:33.315Z,1015.16
2019-05-19T11:51:33.315Z,1015.23
2019-05-19T11:52:33.319Z,1015.32
2019-05-19T11:53:33.320Z,1015.38
2019-05-19T11:54:33.322Z,1015.88
2019-05-19T11:55:33.325Z,1015.52
2019-05-19T11:56:33.327Z,1015.71
2019-05-19T11:57:33.328Z,1015.61
2019-05-19T11:58:33.333Z,1015.61
2019-05-19T11:59:33.331Z,1015.68
2019-05-19T12:00:33.333Z,1015.66
2019-05-19T12:01:33.333Z,1015.64
2019-05-19T12:02:33.334Z,1015.54
2019-05-19T12:03:33.343Z,1015.57
2019-05-19T12:04:33.352Z,1015.59
2019-05-19T12:05:33.357Z,1015.56
2019-05-19T12:06:39.085Z,1015.56
2019-05-19T12:07:33.345Z,1015.54
2019-05-19T12:08:33.347Z,1015.51
2019-05-19T12:09:33.347Z,1015.52
2019-05-19T12:10:33.347Z,1015.52
2019-05-19T12:11:33.347Z,1015.49
2019-05-19T12:12:33.349Z,1015.56
2019-05-19T12:13:35.016Z,1015.5
2019-05-19T12:14:33.352Z,1015.54
2019-05-19T12:15:33.354Z,1015.51
2019-05-19T12:16:33.353Z,1015.69
2019-05-19T12:17:33.355Z,1015.55
2019-05-19T12:18:33.357Z,1015.49